sensor_id;sensor_type;location;lat;lon;timestamp;P1;durP1;ratioP1;P2;durP2;ratioP2
2618;SDS011;1319;52.346;13.096;2023-05-10T01:33:18;7.90;;;6.80;;
2618;SDS011;1319;52.346;13.096;2023-05-10T01:41:51;9.90;;;6.50;;
2618;SDS011;1319;52.346;13.096;2023-05-10T01:47:46;8.00;;;6.10;;
2618;SDS011;1319;52.346;13.096;2023-05-10T01:50:36;10.60;;;6.70;;
2618;SDS011;1319;52.346;13.096;2023-05-10T01:53:06;7.65;;;6.50;;
2618;SDS011;1319;52.346;13.096;2023-05-10T01:55:57;10.73;;;7.00;;
2618;SDS011;1319;52.346;13.096;2023-05-10T01:58:53;9.70;;;6.40;;
2618;SDS011;1319;52.346;13.096;2023-05-10T02:01:27;10.87;;;6.73;;
2618;SDS011;1319;52.346;13.096;2023-05-10T02:03:58;9.70;;;6.53;;
2618;SDS011;1319;52.346;13.096;2023-05-10T02:06:46;10.57;;;6.53;;
2618;SDS011;1319;52.346;13.096;2023-05-10T02:09:38;9.90;;;6.87;;
2618;SDS011;1319;52.346;13.096;2023-05-10T02:12:17;11.00;;;6.83;;
2618;SDS011;1319;52.346;13.096;2023-05-10T02:15:12;8.37;;;6.40;;
2618;SDS011;1319;52.346;13.096;2023-05-10T02:17:41;8.27;;;6.67;;
2618;SDS011;1319;52.346;13.096;2023-05-10T02:20:14;11.47;;;7.23;;
2618;SDS011;1319;52.346;13.096;2023-05-10T02:23:10;9.80;;;6.47;;
2618;SDS011;1319;52.346;13.096;2023-05-10T02:26:15;9.30;;;6.10;;
2618;SDS011;1319;52.346;13.096;2023-05-10T02:29:02;8.47;;;6.80;;
2618;SDS011;1319;52.346;13.096;2023-05-10T02:31:40;8.97;;;6.90;;
2618;SDS011;1319;52.346;13.096;2023-05-10T02:34:27;9.60;;;7.30;;
2618;SDS011;1319;52.346;13.096;2023-05-10T02:36:54;9.70;;;6.80;;
2618;SDS011;1319;52.346;13.096;2023-05-10T02:40:20;11.53;;;6.60;;
2618;SDS011;1319;52.346;13.096;2023-05-10T02:43:06;8.60;;;6.77;;
2618;SDS011;1319;52.346;13.096;2023-05-10T02:46:18;13.37;;;6.90;;
2618;SDS011;1319;52.346;13.096;2023-05-10T02:49:28;8.13;;;6.83;;
2618;SDS011;1319;52.346;13.096;2023-05-10T02:52:49;10.43;;;7.17;;
2618;SDS011;1319;52.346;13.096;2023-05-10T02:55:40;11.10;;;7.63;;
2618;SDS011;1319;52.346;13.096;2023-05-10T02:58:17;8.50;;;7.17;;
2618;SDS011;1319;52.346;13.096;2023-05-10T03:01:17;8.33;;;6.83;;
2618;SDS011;1319;52.346;13.096;2023-05-10T03:03:44;10.90;;;7.97;;
2618;SDS011;1319;52.346;13.096;2023-05-10T03:07:07;10.77;;;7.50;;
2618;SDS011;1319;52.346;13.096;2023-05-10T03:09:46;8.90;;;7.23;;
2618;SDS011;1319;52.346;13.096;2023-05-10T03:12:32;10.97;;;8.13;;
2618;SDS011;1319;52.346;13.096;2023-05-10T03:15:27;10.87;;;7.60;;
2618;SDS011;1319;52.346;13.096;2023-05-10T03:18:33;10.87;;;7.70;;
2618;SDS011;1319;52.346;13.096;2023-05-10T03:21:03;11.73;;;7.60;;
2618;SDS011;1319;52.346;13.096;2023-05-10T03:23:35;11.43;;;8.13;;
2618;SDS011;1319;52.346;13.096;2023-05-10T03:26:35;10.10;;;7.53;;
2618;SDS011;1319;52.346;13.096;2023-05-10T03:29:06;14.60;;;8.17;;
2618;SDS011;1319;52.346;13.096;2023-05-10T03:32:18;9.23;;;7.50;;
2618;SDS011;1319;52.346;13.096;2023-05-10T03:35:27;11.23;;;7.73;;
2618;SDS011;1319;52.346;13.096;2023-05-10T03:38:18;11.40;;;7.43;;
2618;SDS011;1319;52.346;13.096;2023-05-10T03:41:04;12.93;;;8.27;;
2618;SDS011;1319;52.346;13.096;2023-05-10T03:46:53;9.90;;;7.47;;
2618;SDS011;1319;52.346;13.096;2023-05-10T03:49:45;8.97;;;7.07;;
2618;SDS011;1319;52.346;13.096;2023-05-10T03:52:45;9.60;;;7.43;;
2618;SDS011;1319;52.346;13.096;2023-05-10T03:55:14;11.20;;;8.00;;
2618;SDS011;1319;52.346;13.096;2023-05-10T03:58:02;9.13;;;7.17;;
2618;SDS011;1319;52.346;13.096;2023-05-10T04:01:01;9.53;;;7.33;;
2618;SDS011;1319;52.346;13.096;2023-05-10T04:03:46;11.47;;;7.33;;
2618;SDS011;1319;52.346;13.096;2023-05-10T04:06:26;12.57;;;7.60;;
2618;SDS011;1319;52.346;13.096;2023-05-10T04:09:24;10.07;;;7.40;;
2618;SDS011;1319;52.346;13.096;2023-05-10T04:11:55;8.10;;;6.90;;
2618;SDS011;1319;52.346;13.096;2023-05-10T04:14:27;10.03;;;7.57;;
2618;SDS011;1319;52.346;13.096;2023-05-10T04:17:39;9.70;;;7.23;;
2618;SDS011;1319;52.346;13.096;2023-05-10T04:20:19;16.37;;;7.20;;
2618;SDS011;1319;52.346;13.096;2023-05-10T04:23:11;11.47;;;7.00;;
2618;SDS011;1319;52.346;13.096;2023-05-10T04:26:00;8.90;;;7.13;;
2618;SDS011;1319;52.346;13.096;2023-05-10T04:28:35;10.20;;;7.17;;
2618;SDS011;1319;52.346;13.096;2023-05-10T04:31:24;8.73;;;7.00;;
2618;SDS011;1319;52.346;13.096;2023-05-10T04:34:45;8.27;;;6.37;;
2618;SDS011;1319;52.346;13.096;2023-05-10T04:40:10;8.17;;;6.67;;
2618;SDS011;1319;52.346;13.096;2023-05-10T04:43:02;9.67;;;6.80;;
2618;SDS011;1319;52.346;13.096;2023-05-10T04:45:55;11.37;;;6.60;;
2618;SDS011;1319;52.346;13.096;2023-05-10T04:48:55;7.80;;;6.20;;
2618;SDS011;1319;52.346;13.096;2023-05-10T04:51:38;8.70;;;6.60;;
2618;SDS011;1319;52.346;13.096;2023-05-10T04:54:12;9.47;;;6.67;;
2618;SDS011;1319;52.346;13.096;2023-05-10T04:57:00;7.83;;;6.40;;
2618;SDS011;1319;52.346;13.096;2023-05-10T04:59:36;8.50;;;6.20;;
2618;SDS011;1319;52.346;13.096;2023-05-10T05:02:20;7.40;;;6.03;;
2618;SDS011;1319;52.346;13.096;2023-05-10T05:05:05;7.57;;;6.00;;
2618;SDS011;1319;52.346;13.096;2023-05-10T05:07:49;7.40;;;6.13;;
2618;SDS011;1319;52.346;13.096;2023-05-10T05:10:19;6.43;;;5.50;;
2618;SDS011;1319;52.346;13.096;2023-05-10T05:12:59;9.07;;;5.90;;
2618;SDS011;1319;52.346;13.096;2023-05-10T05:15:29;6.90;;;5.47;;
2618;SDS011;1319;52.346;13.096;2023-05-10T05:18:40;8.20;;;6.17;;
2618;SDS011;1319;52.346;13.096;2023-05-10T05:21:27;8.03;;;5.73;;
2618;SDS011;1319;52.346;13.096;2023-05-10T05:24:36;8.10;;;5.53;;
2618;SDS011;1319;52.346;13.096;2023-05-10T05:27:29;7.27;;;5.53;;
2618;SDS011;1319;52.346;13.096;2023-05-10T05:30:13;9.50;;;5.37;;
2618;SDS011;1319;52.346;13.096;2023-05-10T05:32:46;9.10;;;4.93;;
2618;SDS011;1319;52.346;13.096;2023-05-10T05:35:43;6.40;;;5.30;;
2618;SDS011;1319;52.346;13.096;2023-05-10T05:38:30;5.40;;;4.90;;
2618;SDS011;1319;52.346;13.096;2023-05-10T05:41:25;5.93;;;4.83;;
2618;SDS011;1319;52.346;13.096;2023-05-10T05:44:29;5.87;;;5.00;;
2618;SDS011;1319;52.346;13.096;2023-05-10T05:46:58;5.87;;;4.67;;
2618;SDS011;1319;52.346;13.096;2023-05-10T05:50:04;6.20;;;4.97;;
2618;SDS011;1319;52.346;13.096;2023-05-10T05:53:02;7.63;;;5.40;;
2618;SDS011;1319;52.346;13.096;2023-05-10T05:56:05;6.03;;;4.63;;
2618;SDS011;1319;52.346;13.096;2023-05-10T05:59:05;10.53;;;4.90;;
2618;SDS011;1319;52.346;13.096;2023-05-10T06:02:03;7.33;;;5.37;;
2618;SDS011;1319;52.346;13.096;2023-05-10T06:04:31;11.43;;;4.90;;
2618;SDS011;1319;52.346;13.096;2023-05-10T06:07:06;7.33;;;4.97;;
2618;SDS011;1319;52.346;13.096;2023-05-10T06:10:20;7.20;;;4.60;;
2618;SDS011;1319;52.346;13.096;2023-05-10T06:13:08;8.90;;;5.07;;
2618;SDS011;1319;52.346;13.096;2023-05-10T06:16:06;9.37;;;5.10;;
2618;SDS011;1319;52.346;13.096;2023-05-10T06:18:38;5.77;;;5.00;;
2618;SDS011;1319;52.346;13.096;2023-05-10T06:22:07;7.67;;;4.83;;
2618;SDS011;1319;52.346;13.096;2023-05-10T06:24:50;7.17;;;4.97;;
2618;SDS011;1319;52.346;13.096;2023-05-10T06:27:47;8.77;;;4.80;;
2618;SDS011;1319;52.346;13.096;2023-05-10T06:30:40;5.87;;;4.80;;
2618;SDS011;1319;52.346;13.096;2023-05-10T06:33:12;5.97;;;4.77;;
2618;SDS011;1319;52.346;13.096;2023-05-10T06:36:05;6.23;;;4.40;;
2618;SDS011;1319;52.346;13.096;2023-05-10T06:38:39;7.93;;;4.50;;
2618;SDS011;1319;52.346;13.096;2023-05-10T06:41:22;6.00;;;4.50;;
2618;SDS011;1319;52.346;13.096;2023-05-10T06:43:51;7.97;;;4.23;;
2618;SDS011;1319;52.346;13.096;2023-05-10T06:46:19;7.67;;;4.07;;
2618;SDS011;1319;52.346;13.096;2023-05-10T06:49:07;8.10;;;4.30;;
2618;SDS011;1319;52.346;13.096;2023-05-10T06:51:38;5.53;;;3.97;;
2618;SDS011;1319;52.346;13.096;2023-05-10T06:54:15;4.77;;;3.97;;
2618;SDS011;1319;52.346;13.096;2023-05-10T06:56:48;6.10;;;3.87;;
2618;SDS011;1319;52.346;13.096;2023-05-10T06:59:30;4.80;;;3.80;;
2618;SDS011;1319;52.346;13.096;2023-05-10T07:02:01;6.37;;;4.10;;
2618;SDS011;1319;52.346;13.096;2023-05-10T07:04:42;7.90;;;3.87;;
2618;SDS011;1319;52.346;13.096;2023-05-10T07:07:20;9.97;;;4.13;;
2618;SDS011;1319;52.346;13.096;2023-05-10T07:09:57;4.20;;;3.80;;
2618;SDS011;1319;52.346;13.096;2023-05-10T07:12:34;3.97;;;3.63;;
2618;SDS011;1319;52.346;13.096;2023-05-10T07:15:16;7.13;;;4.00;;
2618;SDS011;1319;52.346;13.096;2023-05-10T07:18:22;5.67;;;3.80;;
2618;SDS011;1319;52.346;13.096;2023-05-10T07:20:59;10.57;;;4.03;;
2618;SDS011;1319;52.346;13.096;2023-05-10T07:23:51;5.37;;;3.77;;
2618;SDS011;1319;52.346;13.096;2023-05-10T07:26:47;5.63;;;4.07;;
2618;SDS011;1319;52.346;13.096;2023-05-10T07:29:58;6.20;;;3.80;;
2618;SDS011;1319;52.346;13.096;2023-05-10T07:38:46;4.77;;;3.60;;
2618;SDS011;1319;52.346;13.096;2023-05-10T07:41:38;3.90;;;3.60;;
2618;SDS011;1319;52.346;13.096;2023-05-10T07:44:39;9.23;;;3.80;;
2618;SDS011;1319;52.346;13.096;2023-05-10T07:47:43;7.50;;;3.70;;
2618;SDS011;1319;52.346;13.096;2023-05-10T07:50:39;6.40;;;3.63;;
2618;SDS011;1319;52.346;13.096;2023-05-10T07:53:40;5.20;;;3.50;;
2618;SDS011;1319;52.346;13.096;2023-05-10T07:56:26;4.27;;;3.33;;
2618;SDS011;1319;52.346;13.096;2023-05-10T07:59:01;4.67;;;3.47;;
2618;SDS011;1319;52.346;13.096;2023-05-10T08:01:29;7.80;;;3.53;;
2618;SDS011;1319;52.346;13.096;2023-05-10T08:04:00;5.70;;;3.30;;
2618;SDS011;1319;52.346;13.096;2023-05-10T08:06:26;3.67;;;3.37;;
2618;SDS011;1319;52.346;13.096;2023-05-10T08:08:53;3.50;;;3.20;;
2618;SDS011;1319;52.346;13.096;2023-05-10T08:11:24;4.67;;;3.40;;
2618;SDS011;1319;52.346;13.096;2023-05-10T08:13:50;7.63;;;3.30;;
2618;SDS011;1319;52.346;13.096;2023-05-10T08:16:18;5.97;;;2.90;;
2618;SDS011;1319;52.346;13.096;2023-05-10T08:18:52;4.47;;;3.10;;
2618;SDS011;1319;52.346;13.096;2023-05-10T08:21:21;5.73;;;3.23;;
2618;SDS011;1319;52.346;13.096;2023-05-10T08:23:47;5.97;;;3.23;;
2618;SDS011;1319;52.346;13.096;2023-05-10T08:26:15;6.60;;;3.30;;
2618;SDS011;1319;52.346;13.096;2023-05-10T08:28:45;5.63;;;2.90;;
2618;SDS011;1319;52.346;13.096;2023-05-10T08:31:15;6.87;;;3.23;;
2618;SDS011;1319;52.346;13.096;2023-05-10T08:33:46;4.20;;;3.13;;
2618;SDS011;1319;52.346;13.096;2023-05-10T08:36:14;6.63;;;3.20;;
2618;SDS011;1319;52.346;13.096;2023-05-10T08:39:04;10.17;;;3.20;;
2618;SDS011;1319;52.346;13.096;2023-05-10T08:41:51;5.30;;;3.10;;
2618;SDS011;1319;52.346;13.096;2023-05-10T08:44:20;6.50;;;3.40;;
2618;SDS011;1319;52.346;13.096;2023-05-10T08:47:09;3.47;;;3.17;;
2618;SDS011;1319;52.346;13.096;2023-05-10T08:49:37;5.93;;;3.00;;
2618;SDS011;1319;52.346;13.096;2023-05-10T08:52:06;9.37;;;3.03;;
2618;SDS011;1319;52.346;13.096;2023-05-10T08:54:37;4.50;;;3.40;;
2618;SDS011;1319;52.346;13.096;2023-05-10T08:57:06;3.23;;;2.93;;
2618;SDS011;1319;52.346;13.096;2023-05-10T08:59:52;9.20;;;3.47;;
2618;SDS011;1319;52.346;13.096;2023-05-10T09:02:19;4.32;;;3.10;;
2618;SDS011;1319;52.346;13.096;2023-05-10T09:04:49;3.60;;;3.30;;
2618;SDS011;1319;52.346;13.096;2023-05-10T09:07:15;9.30;;;3.03;;
2618;SDS011;1319;52.346;13.096;2023-05-10T09:09:49;8.37;;;3.10;;
2618;SDS011;1319;52.346;13.096;2023-05-10T09:12:20;3.50;;;3.20;;
2618;SDS011;1319;52.346;13.096;2023-05-10T09:14:50;8.47;;;3.30;;
2618;SDS011;1319;52.346;13.096;2023-05-10T09:17:20;2.93;;;2.73;;
2618;SDS011;1319;52.346;13.096;2023-05-10T09:19:48;9.00;;;3.43;;
2618;SDS011;1319;52.346;13.096;2023-05-10T09:22:17;4.80;;;3.10;;
2618;SDS011;1319;52.346;13.096;2023-05-10T09:24:45;4.80;;;2.67;;
2618;SDS011;1319;52.346;13.096;2023-05-10T09:27:14;5.77;;;2.80;;
2618;SDS011;1319;52.346;13.096;2023-05-10T09:29:46;5.80;;;3.10;;
2618;SDS011;1319;52.346;13.096;2023-05-10T09:32:16;7.70;;;3.10;;
2618;SDS011;1319;52.346;13.096;2023-05-10T09:34:42;7.33;;;3.30;;
2618;SDS011;1319;52.346;13.096;2023-05-10T09:37:11;6.23;;;3.00;;
2618;SDS011;1319;52.346;13.096;2023-05-10T09:39:38;9.07;;;2.80;;
2618;SDS011;1319;52.346;13.096;2023-05-10T09:42:07;3.70;;;2.70;;
2618;SDS011;1319;52.346;13.096;2023-05-10T09:44:35;6.37;;;2.70;;
2618;SDS011;1319;52.346;13.096;2023-05-10T09:47:03;6.87;;;2.83;;
2618;SDS011;1319;52.346;13.096;2023-05-10T09:49:31;2.40;;;2.20;;
2618;SDS011;1319;52.346;13.096;2023-05-10T09:54:59;2.80;;;2.53;;
2618;SDS011;1319;52.346;13.096;2023-05-10T09:57:32;2.83;;;2.57;;
2618;SDS011;1319;52.346;13.096;2023-05-10T10:00:00;2.47;;;2.37;;
2618;SDS011;1319;52.346;13.096;2023-05-10T10:02:32;2.93;;;2.57;;
2618;SDS011;1319;52.346;13.096;2023-05-10T10:05:03;4.93;;;2.70;;
2618;SDS011;1319;52.346;13.096;2023-05-10T10:07:37;4.93;;;2.55;;
2618;SDS011;1319;52.346;13.096;2023-05-10T10:10:09;6.97;;;2.22;;
2618;SDS011;1319;52.346;13.096;2023-05-10T10:12:39;2.70;;;2.50;;
2618;SDS011;1319;52.346;13.096;2023-05-10T10:15:08;2.78;;;2.55;;
2618;SDS011;1319;52.346;13.096;2023-05-10T10:17:38;2.63;;;2.42;;
2618;SDS011;1319;52.346;13.096;2023-05-10T10:20:10;7.55;;;2.60;;
2618;SDS011;1319;52.346;13.096;2023-05-10T10:23:29;5.85;;;2.63;;
2618;SDS011;1319;52.346;13.096;2023-05-10T10:26:20;3.72;;;2.63;;
2618;SDS011;1319;52.346;13.096;2023-05-10T10:31:57;3.15;;;2.53;;
2618;SDS011;1319;52.346;13.096;2023-05-10T10:34:42;2.80;;;2.58;;
2618;SDS011;1319;52.346;13.096;2023-05-10T10:37:12;8.52;;;2.58;;
2618;SDS011;1319;52.346;13.096;2023-05-10T10:39:43;4.97;;;2.53;;
2618;SDS011;1319;52.346;13.096;2023-05-10T10:43:20;11.25;;;2.80;;
2618;SDS011;1319;52.346;13.096;2023-05-10T10:45:28;2.63;;;2.33;;
2618;SDS011;1319;52.346;13.096;2023-05-10T10:50:44;2.88;;;2.67;;
2618;SDS011;1319;52.346;13.096;2023-05-10T10:53:18;5.40;;;2.63;;
2618;SDS011;1319;52.346;13.096;2023-05-10T10:56:10;4.30;;;2.70;;
2618;SDS011;1319;52.346;13.096;2023-05-10T10:58:39;2.63;;;2.40;;
2618;SDS011;1319;52.346;13.096;2023-05-10T11:01:09;5.63;;;2.50;;
2618;SDS011;1319;52.346;13.096;2023-05-10T11:03:41;2.78;;;2.58;;
2618;SDS011;1319;52.346;13.096;2023-05-10T11:06:36;4.95;;;2.55;;
2618;SDS011;1319;52.346;13.096;2023-05-10T11:09:09;3.15;;;2.83;;
2618;SDS011;1319;52.346;13.096;2023-05-10T11:11:37;3.28;;;2.75;;
2618;SDS011;1319;52.346;13.096;2023-05-10T11:14:23;2.85;;;2.38;;
2618;SDS011;1319;52.346;13.096;2023-05-10T11:17:29;2.20;;;2.10;;
2618;SDS011;1319;52.346;13.096;2023-05-10T11:20:15;2.42;;;2.30;;
2618;SDS011;1319;52.346;13.096;2023-05-10T11:22:53;5.50;;;2.50;;
2618;SDS011;1319;52.346;13.096;2023-05-10T11:25:29;3.35;;;2.75;;
2618;SDS011;1319;52.346;13.096;2023-05-10T11:27:55;2.78;;;2.58;;
2618;SDS011;1319;52.346;13.096;2023-05-10T11:30:26;6.15;;;2.28;;
2618;SDS011;1319;52.346;13.096;2023-05-10T11:33:00;5.05;;;2.50;;
2618;SDS011;1319;52.346;13.096;2023-05-10T11:35:27;3.60;;;2.40;;
2618;SDS011;1319;52.346;13.096;2023-05-10T11:37:56;2.92;;;2.72;;
2618;SDS011;1319;52.346;13.096;2023-05-10T11:40:23;4.45;;;2.50;;
2618;SDS011;1319;52.346;13.096;2023-05-10T11:42:51;5.40;;;2.40;;
2618;SDS011;1319;52.346;13.096;2023-05-10T11:45:20;2.60;;;2.38;;
2618;SDS011;1319;52.346;13.096;2023-05-10T11:47:53;3.60;;;2.65;;
2618;SDS011;1319;52.346;13.096;2023-05-10T11:50:22;3.17;;;2.63;;
2618;SDS011;1319;52.346;13.096;2023-05-10T11:52:55;2.30;;;2.20;;
2618;SDS011;1319;52.346;13.096;2023-05-10T11:55:33;3.70;;;2.63;;
2618;SDS011;1319;52.346;13.096;2023-05-10T11:58:04;2.72;;;2.25;;
2618;SDS011;1319;52.346;13.096;2023-05-10T12:00:30;3.80;;;2.55;;
2618;SDS011;1319;52.346;13.096;2023-05-10T12:02:59;2.80;;;2.40;;
2618;SDS011;1319;52.346;13.096;2023-05-10T12:05:34;2.92;;;2.38;;
2618;SDS011;1319;52.346;13.096;2023-05-10T12:08:19;3.50;;;2.42;;
2618;SDS011;1319;52.346;13.096;2023-05-10T12:10:45;4.70;;;2.53;;
2618;SDS011;1319;52.346;13.096;2023-05-10T12:13:16;10.27;;;2.65;;
2618;SDS011;1319;52.346;13.096;2023-05-10T12:15:48;2.72;;;2.53;;
2618;SDS011;1319;52.346;13.096;2023-05-10T12:18:22;3.53;;;2.28;;
2618;SDS011;1319;52.346;13.096;2023-05-10T12:20:49;4.05;;;2.33;;
2618;SDS011;1319;52.346;13.096;2023-05-10T12:23:20;2.72;;;2.47;;
2618;SDS011;1319;52.346;13.096;2023-05-10T12:25:46;3.13;;;2.33;;
2618;SDS011;1319;52.346;13.096;2023-05-10T12:28:14;4.22;;;2.40;;
2618;SDS011;1319;52.346;13.096;2023-05-10T12:30:48;4.53;;;2.80;;
2618;SDS011;1319;52.346;13.096;2023-05-10T12:33:22;2.60;;;2.40;;
2618;SDS011;1319;52.346;13.096;2023-05-10T12:35:50;2.45;;;2.28;;
2618;SDS011;1319;52.346;13.096;2023-05-10T12:38:42;4.45;;;2.28;;
2618;SDS011;1319;52.346;13.096;2023-05-10T12:41:14;5.60;;;2.42;;
2618;SDS011;1319;52.346;13.096;2023-05-10T12:43:40;4.65;;;2.65;;
2618;SDS011;1319;52.346;13.096;2023-05-10T12:48:57;3.83;;;2.70;;
2618;SDS011;1319;52.346;13.096;2023-05-10T12:51:23;6.47;;;2.38;;
2618;SDS011;1319;52.346;13.096;2023-05-10T12:53:49;8.45;;;2.40;;
2618;SDS011;1319;52.346;13.096;2023-05-10T12:56:15;3.10;;;2.65;;
2618;SDS011;1319;52.346;13.096;2023-05-10T12:58:42;2.53;;;2.33;;
2618;SDS011;1319;52.346;13.096;2023-05-10T13:01:13;5.57;;;2.35;;
2618;SDS011;1319;52.346;13.096;2023-05-10T13:03:46;3.42;;;2.45;;
2618;SDS011;1319;52.346;13.096;2023-05-10T13:06:12;6.95;;;2.20;;
2618;SDS011;1319;52.346;13.096;2023-05-10T13:08:53;2.75;;;2.55;;
2618;SDS011;1319;52.346;13.096;2023-05-10T13:11:31;6.95;;;2.50;;
2618;SDS011;1319;52.346;13.096;2023-05-10T13:14:02;6.50;;;2.75;;
2618;SDS011;1319;52.346;13.096;2023-05-10T13:16:33;2.90;;;2.53;;
2618;SDS011;1319;52.346;13.096;2023-05-10T13:19:01;7.47;;;2.80;;
2618;SDS011;1319;52.346;13.096;2023-05-10T13:21:28;3.55;;;2.28;;
2618;SDS011;1319;52.346;13.096;2023-05-10T13:23:55;4.40;;;2.20;;
2618;SDS011;1319;52.346;13.096;2023-05-10T13:27:10;3.50;;;2.30;;
2618;SDS011;1319;52.346;13.096;2023-05-10T13:29:48;5.63;;;2.47;;
2618;SDS011;1319;52.346;13.096;2023-05-10T13:32:43;5.10;;;2.60;;
2618;SDS011;1319;52.346;13.096;2023-05-10T13:35:20;3.25;;;2.60;;
2618;SDS011;1319;52.346;13.096;2023-05-10T13:37:52;4.75;;;2.70;;
2618;SDS011;1319;52.346;13.096;2023-05-10T13:40:27;2.92;;;2.50;;
2618;SDS011;1319;52.346;13.096;2023-05-10T13:43:01;2.83;;;2.63;;
2618;SDS011;1319;52.346;13.096;2023-05-10T13:45:29;7.20;;;2.35;;
2618;SDS011;1319;52.346;13.096;2023-05-10T13:47:57;5.57;;;2.42;;
2618;SDS011;1319;52.346;13.096;2023-05-10T13:50:47;5.07;;;2.33;;
2618;SDS011;1319;52.346;13.096;2023-05-10T13:53:13;2.50;;;2.40;;
2618;SDS011;1319;52.346;13.096;2023-05-10T13:55:39;6.32;;;2.60;;
2618;SDS011;1319;52.346;13.096;2023-05-10T13:58:04;5.05;;;2.60;;
2618;SDS011;1319;52.346;13.096;2023-05-10T14:00:29;3.67;;;2.50;;
2618;SDS011;1319;52.346;13.096;2023-05-10T14:02:55;3.53;;;2.45;;
2618;SDS011;1319;52.346;13.096;2023-05-10T14:05:20;5.80;;;2.97;;
2618;SDS011;1319;52.346;13.096;2023-05-10T14:07:46;3.58;;;2.60;;
2618;SDS011;1319;52.346;13.096;2023-05-10T14:10:11;4.82;;;2.50;;
2618;SDS011;1319;52.346;13.096;2023-05-10T14:12:36;3.50;;;2.88;;
2618;SDS011;1319;52.346;13.096;2023-05-10T14:19:52;5.47;;;2.65;;
2618;SDS011;1319;52.346;13.096;2023-05-10T14:22:18;3.30;;;2.60;;
2618;SDS011;1319;52.346;13.096;2023-05-10T14:24:43;3.40;;;2.58;;
2618;SDS011;1319;52.346;13.096;2023-05-10T14:27:11;9.20;;;2.72;;
2618;SDS011;1319;52.346;13.096;2023-05-10T14:29:37;3.28;;;2.72;;
2618;SDS011;1319;52.346;13.096;2023-05-10T14:32:05;6.55;;;2.63;;
2618;SDS011;1319;52.346;13.096;2023-05-10T14:34:30;2.75;;;2.55;;
2618;SDS011;1319;52.346;13.096;2023-05-10T14:37:02;3.75;;;2.70;;
2618;SDS011;1319;52.346;13.096;2023-05-10T14:39:27;4.18;;;2.45;;
2618;SDS011;1319;52.346;13.096;2023-05-10T14:41:55;4.65;;;2.70;;
2618;SDS011;1319;52.346;13.096;2023-05-10T14:44:20;3.03;;;2.78;;
2618;SDS011;1319;52.346;13.096;2023-05-10T14:46:45;3.72;;;2.78;;
2618;SDS011;1319;52.346;13.096;2023-05-10T14:49:11;8.05;;;3.13;;
2618;SDS011;1319;52.346;13.096;2023-05-10T14:51:36;4.90;;;2.92;;
2618;SDS011;1319;52.346;13.096;2023-05-10T14:54:01;8.35;;;3.00;;
2618;SDS011;1319;52.346;13.096;2023-05-10T14:56:27;7.07;;;2.95;;
2618;SDS011;1319;52.346;13.096;2023-05-10T14:58:52;4.32;;;3.05;;
2618;SDS011;1319;52.346;13.096;2023-05-10T15:01:18;11.98;;;3.30;;
2618;SDS011;1319;52.346;13.096;2023-05-10T15:32:46;6.65;;;4.47;;
2618;SDS011;1319;52.346;13.096;2023-05-10T15:35:11;4.85;;;4.07;;
2618;SDS011;1319;52.346;13.096;2023-05-10T15:37:37;8.48;;;4.40;;
2618;SDS011;1319;52.346;13.096;2023-05-10T15:40:02;7.70;;;4.40;;
2618;SDS011;1319;52.346;13.096;2023-05-10T15:42:31;9.15;;;4.75;;
2618;SDS011;1319;52.346;13.096;2023-05-10T15:44:57;9.68;;;5.10;;
2618;SDS011;1319;52.346;13.096;2023-05-10T15:47:23;10.52;;;4.88;;
2618;SDS011;1319;52.346;13.096;2023-05-10T15:49:48;5.88;;;4.45;;
2618;SDS011;1319;52.346;13.096;2023-05-10T15:52:13;9.13;;;4.68;;
2618;SDS011;1319;52.346;13.096;2023-05-10T15:54:39;7.82;;;4.63;;
2618;SDS011;1319;52.346;13.096;2023-05-10T15:57:04;4.72;;;4.32;;
2618;SDS011;1319;52.346;13.096;2023-05-10T15:59:29;8.82;;;4.50;;
2618;SDS011;1319;52.346;13.096;2023-05-10T16:01:55;6.05;;;4.43;;
2618;SDS011;1319;52.346;13.096;2023-05-10T16:04:21;7.22;;;4.53;;
2618;SDS011;1319;52.346;13.096;2023-05-10T16:06:46;10.10;;;4.55;;
2618;SDS011;1319;52.346;13.096;2023-05-10T16:09:12;8.50;;;4.38;;
2618;SDS011;1319;52.346;13.096;2023-05-10T16:11:37;4.82;;;4.43;;
2618;SDS011;1319;52.346;13.096;2023-05-10T16:14:02;9.45;;;4.47;;
2618;SDS011;1319;52.346;13.096;2023-05-10T16:16:27;6.20;;;4.55;;
2618;SDS011;1319;52.346;13.096;2023-05-10T16:18:53;6.57;;;4.30;;
2618;SDS011;1319;52.346;13.096;2023-05-10T16:21:18;4.43;;;4.13;;
2618;SDS011;1319;52.346;13.096;2023-05-10T16:23:44;8.15;;;4.30;;
2618;SDS011;1319;52.346;13.096;2023-05-10T16:26:10;4.65;;;3.85;;
2618;SDS011;1319;52.346;13.096;2023-05-10T16:28:35;10.70;;;4.77;;
2618;SDS011;1319;52.346;13.096;2023-05-10T16:31:01;9.00;;;4.55;;
2618;SDS011;1319;52.346;13.096;2023-05-10T16:33:26;6.60;;;4.67;;
2618;SDS011;1319;52.346;13.096;2023-05-10T16:35:52;8.73;;;4.40;;
2618;SDS011;1319;52.346;13.096;2023-05-10T16:38:17;7.60;;;4.07;;
2618;SDS011;1319;52.346;13.096;2023-05-10T16:40:42;7.47;;;4.00;;
2618;SDS011;1319;52.346;13.096;2023-05-10T16:43:07;7.57;;;4.30;;
2618;SDS011;1319;52.346;13.096;2023-05-10T16:45:33;5.17;;;4.30;;
2618;SDS011;1319;52.346;13.096;2023-05-10T16:47:58;4.70;;;4.30;;
2618;SDS011;1319;52.346;13.096;2023-05-10T16:50:23;4.90;;;4.50;;
2618;SDS011;1319;52.346;13.096;2023-05-10T16:52:48;6.20;;;3.83;;
2618;SDS011;1319;52.346;13.096;2023-05-10T16:55:14;8.93;;;4.77;;
2618;SDS011;1319;52.346;13.096;2023-05-10T16:57:39;6.00;;;4.17;;
2618;SDS011;1319;52.346;13.096;2023-05-10T17:00:04;5.67;;;4.43;;
2618;SDS011;1319;52.346;13.096;2023-05-10T17:02:30;4.57;;;4.17;;
2618;SDS011;1319;52.346;13.096;2023-05-10T17:04:55;9.63;;;4.33;;
2618;SDS011;1319;52.346;13.096;2023-05-10T17:07:21;5.93;;;4.10;;
2618;SDS011;1319;52.346;13.096;2023-05-10T17:09:46;5.17;;;4.43;;
2618;SDS011;1319;52.346;13.096;2023-05-10T17:12:11;4.90;;;4.40;;
2618;SDS011;1319;52.346;13.096;2023-05-10T20:28:20;7.60;;;4.90;;
2618;SDS011;1319;52.346;13.096;2023-05-10T20:30:45;7.13;;;5.00;;
2618;SDS011;1319;52.346;13.096;2023-05-10T20:33:10;5.33;;;4.73;;
2618;SDS011;1319;52.346;13.096;2023-05-10T20:35:36;6.57;;;4.50;;
2618;SDS011;1319;52.346;13.096;2023-05-10T20:38:01;4.63;;;4.23;;
2618;SDS011;1319;52.346;13.096;2023-05-10T20:40:26;5.97;;;4.73;;
2618;SDS011;1319;52.346;13.096;2023-05-10T20:42:53;6.57;;;5.00;;
2618;SDS011;1319;52.346;13.096;2023-05-10T20:45:18;6.63;;;4.77;;
2618;SDS011;1319;52.346;13.096;2023-05-10T20:47:44;5.10;;;4.70;;
2618;SDS011;1319;52.346;13.096;2023-05-10T20:50:09;5.07;;;4.33;;
2618;SDS011;1319;52.346;13.096;2023-05-10T20:52:35;7.17;;;4.87;;
2618;SDS011;1319;52.346;13.096;2023-05-10T20:55:00;5.80;;;4.77;;
2618;SDS011;1319;52.346;13.096;2023-05-10T20:57:26;8.43;;;4.77;;
2618;SDS011;1319;52.346;13.096;2023-05-10T20:59:51;5.23;;;4.73;;
2618;SDS011;1319;52.346;13.096;2023-05-10T21:02:16;6.07;;;5.00;;
2618;SDS011;1319;52.346;13.096;2023-05-10T21:04:42;4.97;;;4.57;;
2618;SDS011;1319;52.346;13.096;2023-05-10T21:07:07;5.27;;;4.77;;
2618;SDS011;1319;52.346;13.096;2023-05-10T21:09:32;5.90;;;5.40;;
2618;SDS011;1319;52.346;13.096;2023-05-10T21:11:59;5.17;;;4.67;;
2618;SDS011;1319;52.346;13.096;2023-05-10T21:14:27;6.47;;;4.83;;
2618;SDS011;1319;52.346;13.096;2023-05-10T21:16:52;5.37;;;4.87;;
2618;SDS011;1319;52.346;13.096;2023-05-10T21:19:18;5.50;;;5.00;;
2618;SDS011;1319;52.346;13.096;2023-05-10T21:21:43;6.30;;;5.00;;
2618;SDS011;1319;52.346;13.096;2023-05-10T21:24:09;5.57;;;5.07;;
2618;SDS011;1319;52.346;13.096;2023-05-10T21:26:34;5.70;;;5.07;;
2618;SDS011;1319;52.346;13.096;2023-05-10T21:28:59;7.47;;;4.60;;
2618;SDS011;1319;52.346;13.096;2023-05-10T21:31:25;7.50;;;5.60;;
2618;SDS011;1319;52.346;13.096;2023-05-10T21:33:50;10.27;;;6.10;;
2618;SDS011;1319;52.346;13.096;2023-05-10T21:36:15;10.67;;;6.17;;
2618;SDS011;1319;52.346;13.096;2023-05-10T21:38:41;8.10;;;5.53;;
2618;SDS011;1319;52.346;13.096;2023-05-10T21:41:08;8.97;;;5.70;;
2618;SDS011;1319;52.346;13.096;2023-05-10T21:43:33;5.87;;;5.37;;
2618;SDS011;1319;52.346;13.096;2023-05-10T21:45:58;7.63;;;5.60;;
2618;SDS011;1319;52.346;13.096;2023-05-10T21:48:24;8.63;;;6.00;;